Terminal Aerodrome Forecast
Issued by NWS Portland, OR

Home | Current Version | Previous Version | Text Only | Print | Product List | Glossary On
Versions: 1 2 3 4 5 6 7 8 9 10 11 12 13 14 15 16 17
000
FTUS46 KPQR 242330
TAFAST
TAF
KAST 242330Z 2500/2524 20012G20KT P6SM -SHRA SCT025 BKN040 OVC060
     FM250200 22008KT P6SM -SHRA SCT025 BKN040
     FM251000 23004KT P6SM -SHRA SCT025 BKN035 OVC050
     FM251900 25006KT P6SM VCSH SCT025 BKN045=

USA.gov is the U.S. government's official web portal to all federal, state and local government web resources and services.